sensor_id;sensor_type;location;lat;lon;timestamp;pressure;altitude;pressure_sealevel;temperature;humidity
23616;BME280;11985;49.404;7.734;2024-01-15T00:01:42;96298.66;;;-5.97;100.00
23616;BME280;11985;49.404;7.734;2024-01-15T00:06:45;96289.22;;;-5.97;100.00
23616;BME280;11985;49.404;7.734;2024-01-15T00:11:46;96295.72;;;-5.93;100.00
23616;BME280;11985;49.404;7.734;2024-01-15T00:16:48;96290.84;;;-5.96;100.00
23616;BME280;11985;49.404;7.734;2024-01-15T00:21:52;96280.59;;;-5.96;100.00
23616;BME280;11985;49.404;7.734;2024-01-15T00:26:54;96275.22;;;-5.93;100.00
23616;BME280;11985;49.404;7.734;2024-01-15T00:31:55;96263.03;;;-5.91;100.00
23616;BME280;11985;49.404;7.734;2024-01-15T00:36:58;96257.28;;;-5.93;100.00
23616;BME280;11985;49.404;7.734;2024-01-15T00:42:00;96258.47;;;-5.97;100.00
23616;BME280;11985;49.404;7.734;2024-01-15T00:47:01;96247.00;;;-5.93;100.00
23616;BME280;11985;49.404;7.734;2024-01-15T00:52:05;96260.88;;;-5.95;100.00
23616;BME280;11985;49.404;7.734;2024-01-15T00:57:07;96253.09;;;-5.94;100.00
23616;BME280;11985;49.404;7.734;2024-01-15T01:02:08;96252.66;;;-5.89;100.00
23616;BME280;11985;49.404;7.734;2024-01-15T01:07:11;96247.41;;;-5.88;100.00
23616;BME280;11985;49.404;7.734;2024-01-15T01:12:13;96250.63;;;-5.95;100.00
23616;BME280;11985;49.404;7.734;2024-01-15T01:17:15;96260.09;;;-5.86;100.00
23616;BME280;11985;49.404;7.734;2024-01-15T01:22:18;96254.69;;;-5.83;100.00
23616;BME280;11985;49.404;7.734;2024-01-15T01:27:19;96260.53;;;-5.81;100.00
23616;BME280;11985;49.404;7.734;2024-01-15T01:32:21;96258.25;;;-5.74;100.00
23616;BME280;11985;49.404;7.734;2024-01-15T01:37:24;96257.19;;;-5.72;100.00
23616;BME280;11985;49.404;7.734;2024-01-15T01:42:25;96256.09;;;-5.69;100.00
23616;BME280;11985;49.404;7.734;2024-01-15T01:47:27;96258.53;;;-5.68;100.00
23616;BME280;11985;49.404;7.734;2024-01-15T01:52:30;96259.34;;;-5.67;100.00
23616;BME280;11985;49.404;7.734;2024-01-15T01:57:32;96254.38;;;-5.59;100.00
23616;BME280;11985;49.404;7.734;2024-01-15T02:02:35;96248.84;;;-5.64;100.00
23616;BME280;11985;49.404;7.734;2024-01-15T02:07:38;96248.03;;;-5.65;100.00
23616;BME280;11985;49.404;7.734;2024-01-15T02:12:40;96234.13;;;-5.62;100.00
23616;BME280;11985;49.404;7.734;2024-01-15T02:17:58;96235.06;;;-5.63;100.00
23616;BME280;11985;49.404;7.734;2024-01-15T02:23:07;96229.78;;;-5.62;100.00
23616;BME280;11985;49.404;7.734;2024-01-15T02:28:09;96232.34;;;-5.62;100.00
23616;BME280;11985;49.404;7.734;2024-01-15T02:33:12;96219.13;;;-5.57;100.00
23616;BME280;11985;49.404;7.734;2024-01-15T02:38:14;96230.78;;;-5.53;100.00
23616;BME280;11985;49.404;7.734;2024-01-15T02:43:16;96215.94;;;-5.49;100.00
23616;BME280;11985;49.404;7.734;2024-01-15T02:48:19;96213.22;;;-5.48;100.00
23616;BME280;11985;49.404;7.734;2024-01-15T02:53:22;96216.47;;;-5.46;100.00
23616;BME280;11985;49.404;7.734;2024-01-15T02:58:23;96214.59;;;-5.44;100.00
23616;BME280;11985;49.404;7.734;2024-01-15T03:03:25;96218.63;;;-5.41;100.00
23616;BME280;11985;49.404;7.734;2024-01-15T03:08:28;96228.34;;;-5.45;100.00
23616;BME280;11985;49.404;7.734;2024-01-15T03:13:30;96215.25;;;-5.42;100.00
23616;BME280;11985;49.404;7.734;2024-01-15T03:18:31;96209.19;;;-5.41;100.00
23616;BME280;11985;49.404;7.734;2024-01-15T03:23:34;96192.84;;;-5.40;100.00
23616;BME280;11985;49.404;7.734;2024-01-15T03:28:36;96192.84;;;-5.40;100.00
23616;BME280;11985;49.404;7.734;2024-01-15T03:33:37;96177.31;;;-5.38;100.00
23616;BME280;11985;49.404;7.734;2024-01-15T03:38:41;96171.78;;;-5.34;100.00
23616;BME280;11985;49.404;7.734;2024-01-15T03:43:43;96171.50;;;-5.31;100.00
23616;BME280;11985;49.404;7.734;2024-01-15T03:48:44;96172.06;;;-5.27;100.00
23616;BME280;11985;49.404;7.734;2024-01-15T03:53:47;96181.09;;;-5.23;100.00
23616;BME280;11985;49.404;7.734;2024-01-15T03:58:49;96187.44;;;-5.17;100.00
23616;BME280;11985;49.404;7.734;2024-01-15T04:03:50;96164.09;;;-5.14;100.00
23616;BME280;11985;49.404;7.734;2024-01-15T04:08:53;96149.50;;;-5.14;100.00
23616;BME280;11985;49.404;7.734;2024-01-15T04:13:55;96159.63;;;-5.12;100.00
23616;BME280;11985;49.404;7.734;2024-01-15T04:18:56;96143.00;;;-5.08;100.00
23616;BME280;11985;49.404;7.734;2024-01-15T04:23:59;96138.28;;;-5.03;100.00
23616;BME280;11985;49.404;7.734;2024-01-15T04:29:01;96138.41;;;-5.05;100.00
23616;BME280;11985;49.404;7.734;2024-01-15T04:34:03;96130.56;;;-5.03;100.00
23616;BME280;11985;49.404;7.734;2024-01-15T04:39:05;96101.22;;;-5.00;100.00
23616;BME280;11985;49.404;7.734;2024-01-15T04:44:07;96109.47;;;-4.97;100.00
23616;BME280;11985;49.404;7.734;2024-01-15T04:49:09;96106.34;;;-4.91;100.00
23616;BME280;11985;49.404;7.734;2024-01-15T04:54:12;96104.84;;;-4.84;100.00
23616;BME280;11985;49.404;7.734;2024-01-15T04:59:17;96107.38;;;-4.64;100.00
23616;BME280;11985;49.404;7.734;2024-01-15T05:04:19;96108.56;;;-4.59;100.00
23616;BME280;11985;49.404;7.734;2024-01-15T05:09:22;96120.75;;;-4.61;100.00
23616;BME280;11985;49.404;7.734;2024-01-15T05:14:24;96115.19;;;-4.56;100.00
23616;BME280;11985;49.404;7.734;2024-01-15T05:19:25;96126.81;;;-4.52;100.00
23616;BME280;11985;49.404;7.734;2024-01-15T05:24:28;96124.72;;;-4.39;100.00
23616;BME280;11985;49.404;7.734;2024-01-15T05:29:30;96111.69;;;-4.28;100.00
23616;BME280;11985;49.404;7.734;2024-01-15T05:34:31;96111.41;;;-4.25;100.00
23616;BME280;11985;49.404;7.734;2024-01-15T05:39:34;96108.97;;;-4.16;100.00
23616;BME280;11985;49.404;7.734;2024-01-15T05:44:36;96108.28;;;-4.18;100.00
23616;BME280;11985;49.404;7.734;2024-01-15T05:49:37;96111.25;;;-4.23;100.00
23616;BME280;11985;49.404;7.734;2024-01-15T05:54:40;96097.59;;;-4.23;100.00
23616;BME280;11985;49.404;7.734;2024-01-15T05:59:44;96103.13;;;-4.18;100.00
23616;BME280;11985;49.404;7.734;2024-01-15T06:04:45;96087.44;;;-4.15;100.00
23616;BME280;11985;49.404;7.734;2024-01-15T06:09:49;96092.81;;;-4.09;100.00
23616;BME280;11985;49.404;7.734;2024-01-15T06:14:50;96087.81;;;-4.10;100.00
23616;BME280;11985;49.404;7.734;2024-01-15T06:19:52;96084.75;;;-3.96;100.00
23616;BME280;11985;49.404;7.734;2024-01-15T06:24:55;96080.50;;;-3.87;100.00
23616;BME280;11985;49.404;7.734;2024-01-15T06:29:57;96080.41;;;-3.95;100.00
23616;BME280;11985;49.404;7.734;2024-01-15T06:34:58;96090.19;;;-3.99;100.00
23616;BME280;11985;49.404;7.734;2024-01-15T06:40:01;96079.91;;;-3.99;100.00
23616;BME280;11985;49.404;7.734;2024-01-15T06:45:07;96084.34;;;-4.01;100.00
23616;BME280;11985;49.404;7.734;2024-01-15T06:50:09;96080.47;;;-4.05;100.00
23616;BME280;11985;49.404;7.734;2024-01-15T06:55:12;96084.28;;;-4.09;100.00
23616;BME280;11985;49.404;7.734;2024-01-15T07:00:15;96085.09;;;-4.09;100.00
23616;BME280;11985;49.404;7.734;2024-01-15T07:05:17;96078.84;;;-4.06;100.00
23616;BME280;11985;49.404;7.734;2024-01-15T07:10:20;96076.66;;;-4.01;100.00
23616;BME280;11985;49.404;7.734;2024-01-15T07:15:22;96068.34;;;-3.95;100.00
23616;BME280;11985;49.404;7.734;2024-01-15T07:20:24;96069.09;;;-3.85;100.00
23616;BME280;11985;49.404;7.734;2024-01-15T07:25:27;96065.19;;;-3.89;100.00
23616;BME280;11985;49.404;7.734;2024-01-15T07:30:28;96055.28;;;-3.84;100.00
23616;BME280;11985;49.404;7.734;2024-01-15T07:35:30;96065.28;;;-3.81;100.00
23616;BME280;11985;49.404;7.734;2024-01-15T07:40:33;96056.59;;;-3.80;100.00
23616;BME280;11985;49.404;7.734;2024-01-15T07:45:34;96070.81;;;-3.76;100.00
23616;BME280;11985;49.404;7.734;2024-01-15T07:50:36;96069.31;;;-3.78;100.00
23616;BME280;11985;49.404;7.734;2024-01-15T07:55:39;96054.78;;;-3.69;100.00
23616;BME280;11985;49.404;7.734;2024-01-15T08:00:40;96060.72;;;-3.69;100.00
23616;BME280;11985;49.404;7.734;2024-01-15T08:05:42;96064.47;;;-3.63;100.00
23616;BME280;11985;49.404;7.734;2024-01-15T08:10:45;96063.88;;;-3.57;100.00
23616;BME280;11985;49.404;7.734;2024-01-15T08:15:46;96071.97;;;-3.52;100.00
23616;BME280;11985;49.404;7.734;2024-01-15T08:20:48;96063.59;;;-3.54;100.00
23616;BME280;11985;49.404;7.734;2024-01-15T08:25:52;96066.69;;;-3.51;100.00
23616;BME280;11985;49.404;7.734;2024-01-15T08:30:54;96053.97;;;-3.52;100.00
23616;BME280;11985;49.404;7.734;2024-01-15T08:35:56;96065.22;;;-3.53;100.00
23616;BME280;11985;49.404;7.734;2024-01-15T08:40:59;96066.69;;;-3.51;100.00
23616;BME280;11985;49.404;7.734;2024-01-15T08:46:00;96067.47;;;-3.50;100.00
23616;BME280;11985;49.404;7.734;2024-01-15T08:51:03;96073.00;;;-3.45;100.00
23616;BME280;11985;49.404;7.734;2024-01-15T08:56:06;96058.97;;;-3.33;100.00
23616;BME280;11985;49.404;7.734;2024-01-15T09:01:08;96066.44;;;-3.22;100.00
23616;BME280;11985;49.404;7.734;2024-01-15T09:06:10;96061.94;;;-3.20;100.00
23616;BME280;11985;49.404;7.734;2024-01-15T09:11:13;96056.47;;;-3.16;100.00
23616;BME280;11985;49.404;7.734;2024-01-15T09:16:15;96053.56;;;-3.22;100.00
23616;BME280;11985;49.404;7.734;2024-01-15T09:21:17;96052.97;;;-3.15;100.00
23616;BME280;11985;49.404;7.734;2024-01-15T09:26:19;96060.75;;;-3.07;100.00
23616;BME280;11985;49.404;7.734;2024-01-15T09:31:21;96042.56;;;-3.06;100.00
23616;BME280;11985;49.404;7.734;2024-01-15T09:36:23;96042.19;;;-2.93;100.00
23616;BME280;11985;49.404;7.734;2024-01-15T09:41:26;96043.94;;;-2.94;100.00
23616;BME280;11985;49.404;7.734;2024-01-15T09:46:28;96049.22;;;-2.95;100.00
23616;BME280;11985;49.404;7.734;2024-01-15T09:51:31;96057.31;;;-2.90;100.00
23616;BME280;11985;49.404;7.734;2024-01-15T09:56:34;96051.56;;;-2.84;100.00
23616;BME280;11985;49.404;7.734;2024-01-15T10:01:36;96047.19;;;-2.83;100.00
23616;BME280;11985;49.404;7.734;2024-01-15T10:06:39;96041.94;;;-2.74;100.00
23616;BME280;11985;49.404;7.734;2024-01-15T10:11:47;96045.50;;;-2.75;100.00
23616;BME280;11985;49.404;7.734;2024-01-15T10:16:51;96035.63;;;-2.79;100.00
23616;BME280;11985;49.404;7.734;2024-01-15T10:21:52;96035.47;;;-2.78;100.00
23616;BME280;11985;49.404;7.734;2024-01-15T10:27:05;96038.72;;;-2.76;100.00
23616;BME280;11985;49.404;7.734;2024-01-15T10:32:07;96023.88;;;-2.82;100.00
23616;BME280;11985;49.404;7.734;2024-01-15T10:37:10;96016.50;;;-2.77;100.00
23616;BME280;11985;49.404;7.734;2024-01-15T10:42:13;96010.09;;;-2.64;100.00
23616;BME280;11985;49.404;7.734;2024-01-15T10:47:14;96010.09;;;-2.64;100.00
23616;BME280;11985;49.404;7.734;2024-01-15T10:52:16;96007.88;;;-2.59;100.00
23616;BME280;11985;49.404;7.734;2024-01-15T10:57:20;96006.56;;;-2.63;100.00
23616;BME280;11985;49.404;7.734;2024-01-15T11:02:23;95995.63;;;-2.57;100.00
23616;BME280;11985;49.404;7.734;2024-01-15T11:07:26;96001.13;;;-2.60;100.00
23616;BME280;11985;49.404;7.734;2024-01-15T11:12:29;95992.72;;;-2.62;100.00
23616;BME280;11985;49.404;7.734;2024-01-15T11:17:59;95997.91;;;-2.54;100.00
23616;BME280;11985;49.404;7.734;2024-01-15T11:23:01;95999.19;;;-2.58;100.00
23616;BME280;11985;49.404;7.734;2024-01-15T11:28:04;95999.00;;;-2.57;100.00
23616;BME280;11985;49.404;7.734;2024-01-15T11:33:06;96005.03;;;-2.48;100.00
23616;BME280;11985;49.404;7.734;2024-01-15T11:38:07;96006.00;;;-2.41;100.00
23616;BME280;11985;49.404;7.734;2024-01-15T11:43:13;95997.00;;;-2.29;100.00
23616;BME280;11985;49.404;7.734;2024-01-15T11:48:17;96014.59;;;-2.24;100.00
23616;BME280;11985;49.404;7.734;2024-01-15T11:53:27;96003.81;;;-2.20;100.00
23616;BME280;11985;49.404;7.734;2024-01-15T11:58:36;96008.66;;;-2.17;100.00
23616;BME280;11985;49.404;7.734;2024-01-15T12:03:38;96018.66;;;-2.14;100.00
23616;BME280;11985;49.404;7.734;2024-01-15T12:08:39;96016.72;;;-2.12;100.00
23616;BME280;11985;49.404;7.734;2024-01-15T12:13:42;96025.13;;;-2.09;100.00
23616;BME280;11985;49.404;7.734;2024-01-15T12:18:44;96039.81;;;-2.02;100.00
23616;BME280;11985;49.404;7.734;2024-01-15T12:23:46;96027.09;;;-1.95;100.00
23616;BME280;11985;49.404;7.734;2024-01-15T12:28:50;96030.00;;;-1.90;100.00
23616;BME280;11985;49.404;7.734;2024-01-15T12:33:52;96029.38;;;-1.92;100.00
23616;BME280;11985;49.404;7.734;2024-01-15T12:38:59;96031.16;;;-1.93;100.00
23616;BME280;11985;49.404;7.734;2024-01-15T12:44:01;96041.34;;;-1.83;100.00
23616;BME280;11985;49.404;7.734;2024-01-15T12:49:07;96044.41;;;-1.71;100.00
23616;BME280;11985;49.404;7.734;2024-01-15T12:54:09;96053.25;;;-1.82;100.00
23616;BME280;11985;49.404;7.734;2024-01-15T12:59:12;96049.22;;;-1.84;100.00
23616;BME280;11985;49.404;7.734;2024-01-15T13:04:23;96044.53;;;-1.81;100.00
23616;BME280;11985;49.404;7.734;2024-01-15T13:09:25;96044.53;;;-1.81;100.00
23616;BME280;11985;49.404;7.734;2024-01-15T13:14:28;96047.78;;;-1.79;100.00
23616;BME280;11985;49.404;7.734;2024-01-15T13:19:31;96030.38;;;-1.69;100.00
23616;BME280;11985;49.404;7.734;2024-01-15T13:24:34;96036.03;;;-1.49;100.00
23616;BME280;11985;49.404;7.734;2024-01-15T13:29:37;96035.22;;;-1.41;100.00
23616;BME280;11985;49.404;7.734;2024-01-15T13:34:39;96032.66;;;-1.41;100.00
23616;BME280;11985;49.404;7.734;2024-01-15T13:39:46;96046.84;;;-1.29;100.00
23616;BME280;11985;49.404;7.734;2024-01-15T13:44:49;96052.81;;;-1.20;100.00
23616;BME280;11985;49.404;7.734;2024-01-15T13:49:51;96066.38;;;-1.18;100.00
23616;BME280;11985;49.404;7.734;2024-01-15T13:54:53;96066.88;;;-1.23;100.00
23616;BME280;11985;49.404;7.734;2024-01-15T13:59:55;96076.25;;;-1.14;100.00
23616;BME280;11985;49.404;7.734;2024-01-15T14:04:57;96075.75;;;-1.09;100.00
23616;BME280;11985;49.404;7.734;2024-01-15T14:09:59;96094.97;;;-1.12;100.00
23616;BME280;11985;49.404;7.734;2024-01-15T14:15:02;96107.25;;;-1.14;100.00
23616;BME280;11985;49.404;7.734;2024-01-15T14:20:06;96104.66;;;-1.22;100.00
23616;BME280;11985;49.404;7.734;2024-01-15T14:25:10;96103.97;;;-1.40;100.00
23616;BME280;11985;49.404;7.734;2024-01-15T14:30:13;96120.44;;;-1.49;100.00
23616;BME280;11985;49.404;7.734;2024-01-15T14:35:16;96114.94;;;-1.46;100.00
23616;BME280;11985;49.404;7.734;2024-01-15T14:40:17;96114.94;;;-1.46;100.00
23616;BME280;11985;49.404;7.734;2024-01-15T14:45:20;96129.50;;;-1.37;100.00
23616;BME280;11985;49.404;7.734;2024-01-15T14:50:22;96143.06;;;-1.35;100.00
23616;BME280;11985;49.404;7.734;2024-01-15T14:55:23;96135.31;;;-1.43;100.00
23616;BME280;11985;49.404;7.734;2024-01-15T15:00:27;96141.75;;;-1.39;100.00
23616;BME280;11985;49.404;7.734;2024-01-15T15:05:28;96148.56;;;-1.38;100.00
23616;BME280;11985;49.404;7.734;2024-01-15T15:10:30;96149.50;;;-1.47;100.00
23616;BME280;11985;49.404;7.734;2024-01-15T15:15:33;96157.88;;;-1.53;100.00
23616;BME280;11985;49.404;7.734;2024-01-15T15:20:34;96166.44;;;-1.53;100.00
23616;BME280;11985;49.404;7.734;2024-01-15T15:25:36;96181.41;;;-1.56;100.00
23616;BME280;11985;49.404;7.734;2024-01-15T15:30:39;96180.94;;;-1.52;100.00
23616;BME280;11985;49.404;7.734;2024-01-15T15:35:41;96190.13;;;-1.57;100.00
23616;BME280;11985;49.404;7.734;2024-01-15T15:40:44;96203.72;;;-1.55;100.00
23616;BME280;11985;49.404;7.734;2024-01-15T15:45:47;96209.88;;;-1.48;100.00
23616;BME280;11985;49.404;7.734;2024-01-15T15:50:50;96218.38;;;-1.56;100.00
23616;BME280;11985;49.404;7.734;2024-01-15T15:55:51;96225.28;;;-1.65;100.00
23616;BME280;11985;49.404;7.734;2024-01-15T16:00:54;96227.38;;;-1.68;100.00
23616;BME280;11985;49.404;7.734;2024-01-15T16:05:59;96227.47;;;-1.78;100.00
23616;BME280;11985;49.404;7.734;2024-01-15T16:11:00;96237.78;;;-1.86;100.00
23616;BME280;11985;49.404;7.734;2024-01-15T16:16:04;96241.66;;;-1.82;100.00
23616;BME280;11985;49.404;7.734;2024-01-15T16:21:06;96242.84;;;-1.76;100.00
23616;BME280;11985;49.404;7.734;2024-01-15T16:26:07;96259.94;;;-1.75;100.00
23616;BME280;11985;49.404;7.734;2024-01-15T16:31:10;96271.88;;;-1.74;100.00
23616;BME280;11985;49.404;7.734;2024-01-15T16:36:12;96284.94;;;-1.76;100.00
23616;BME280;11985;49.404;7.734;2024-01-15T16:41:13;96292.34;;;-1.73;100.00
23616;BME280;11985;49.404;7.734;2024-01-15T16:46:16;96297.88;;;-1.68;100.00
23616;BME280;11985;49.404;7.734;2024-01-15T16:51:18;96296.59;;;-1.72;100.00
23616;BME280;11985;49.404;7.734;2024-01-15T16:56:19;96304.47;;;-1.73;100.00
23616;BME280;11985;49.404;7.734;2024-01-15T17:01:22;96316.19;;;-1.79;100.00
23616;BME280;11985;49.404;7.734;2024-01-15T17:06:24;96321.97;;;-1.85;100.00
23616;BME280;11985;49.404;7.734;2024-01-15T17:11:25;96315.81;;;-1.92;100.00
23616;BME280;11985;49.404;7.734;2024-01-15T17:16:29;96323.78;;;-2.03;100.00
23616;BME280;11985;49.404;7.734;2024-01-15T17:21:31;96331.97;;;-2.08;100.00
23616;BME280;11985;49.404;7.734;2024-01-15T17:26:35;96335.09;;;-2.04;100.00
23616;BME280;11985;49.404;7.734;2024-01-15T17:31:38;96335.00;;;-2.13;100.00
23616;BME280;11985;49.404;7.734;2024-01-15T17:36:40;96344.00;;;-2.17;100.00
23616;BME280;11985;49.404;7.734;2024-01-15T17:41:41;96348.44;;;-2.09;100.00
23616;BME280;11985;49.404;7.734;2024-01-15T17:46:44;96359.91;;;-2.03;100.00
23616;BME280;11985;49.404;7.734;2024-01-15T17:51:46;96361.53;;;-2.02;100.00
23616;BME280;11985;49.404;7.734;2024-01-15T17:56:48;96367.41;;;-1.92;100.00
23616;BME280;11985;49.404;7.734;2024-01-15T18:01:51;96378.50;;;-2.00;100.00
23616;BME280;11985;49.404;7.734;2024-01-15T18:06:54;96388.22;;;-2.12;100.00
23616;BME280;11985;49.404;7.734;2024-01-15T18:11:57;96395.81;;;-2.10;100.00
23616;BME280;11985;49.404;7.734;2024-01-15T18:17:04;96400.47;;;-2.14;100.00
23616;BME280;11985;49.404;7.734;2024-01-15T18:22:05;96412.72;;;-2.16;100.00
23616;BME280;11985;49.404;7.734;2024-01-15T18:27:07;96421.38;;;-2.17;100.00
23616;BME280;11985;49.404;7.734;2024-01-15T18:32:10;96428.03;;;-2.14;100.00
23616;BME280;11985;49.404;7.734;2024-01-15T18:37:12;96426.84;;;-2.02;100.00
23616;BME280;11985;49.404;7.734;2024-01-15T18:42:14;96434.16;;;-1.97;100.00
23616;BME280;11985;49.404;7.734;2024-01-15T18:47:16;96432.97;;;-2.03;100.00
23616;BME280;11985;49.404;7.734;2024-01-15T18:52:19;96450.13;;;-2.12;100.00
23616;BME280;11985;49.404;7.734;2024-01-15T18:57:21;96461.34;;;-2.21;100.00
23616;BME280;11985;49.404;7.734;2024-01-15T19:02:24;96455.22;;;-2.20;100.00
23616;BME280;11985;49.404;7.734;2024-01-15T19:07:26;96456.69;;;-2.17;100.00
23616;BME280;11985;49.404;7.734;2024-01-15T19:12:27;96467.09;;;-2.27;100.00
23616;BME280;11985;49.404;7.734;2024-01-15T19:17:30;96475.31;;;-2.41;100.00
23616;BME280;11985;49.404;7.734;2024-01-15T19:22:32;96474.53;;;-2.51;100.00
23616;BME280;11985;49.404;7.734;2024-01-15T19:27:34;96477.53;;;-2.56;100.00
23616;BME280;11985;49.404;7.734;2024-01-15T19:32:38;96477.03;;;-2.59;100.00
23616;BME280;11985;49.404;7.734;2024-01-15T19:37:41;96481.03;;;-2.47;100.00
23616;BME280;11985;49.404;7.734;2024-01-15T19:42:42;96485.72;;;-2.33;100.00
23616;BME280;11985;49.404;7.734;2024-01-15T19:47:45;96499.81;;;-2.27;100.00
23616;BME280;11985;49.404;7.734;2024-01-15T19:52:47;96496.94;;;-2.24;100.00
23616;BME280;11985;49.404;7.734;2024-01-15T19:57:49;96498.31;;;-2.30;100.00
23616;BME280;11985;49.404;7.734;2024-01-15T20:02:52;96512.84;;;-2.29;100.00
23616;BME280;11985;49.404;7.734;2024-01-15T20:07:55;96516.22;;;-2.28;100.00
23616;BME280;11985;49.404;7.734;2024-01-15T20:12:56;96520.56;;;-2.29;100.00
23616;BME280;11985;49.404;7.734;2024-01-15T20:17:59;96519.53;;;-2.36;100.00
23616;BME280;11985;49.404;7.734;2024-01-15T20:23:01;96530.38;;;-2.32;100.00
23616;BME280;11985;49.404;7.734;2024-01-15T20:28:03;96543.41;;;-2.34;100.00
23616;BME280;11985;49.404;7.734;2024-01-15T20:33:10;96542.16;;;-2.30;100.00
23616;BME280;11985;49.404;7.734;2024-01-15T20:38:12;96545.78;;;-2.23;100.00
23616;BME280;11985;49.404;7.734;2024-01-15T20:43:13;96545.47;;;-2.10;100.00
23616;BME280;11985;49.404;7.734;2024-01-15T20:48:16;96558.97;;;-1.98;100.00
23616;BME280;11985;49.404;7.734;2024-01-15T20:53:18;96559.78;;;-1.98;100.00
23616;BME280;11985;49.404;7.734;2024-01-15T20:58:24;96557.63;;;-2.02;100.00
23616;BME280;11985;49.404;7.734;2024-01-15T21:03:27;96558.09;;;-2.17;100.00
23616;BME280;11985;49.404;7.734;2024-01-15T21:08:30;96557.75;;;-2.22;100.00
23616;BME280;11985;49.404;7.734;2024-01-15T21:13:33;96563.28;;;-2.44;100.00
23616;BME280;11985;49.404;7.734;2024-01-15T21:18:36;96562.91;;;-2.49;100.00
23616;BME280;11985;49.404;7.734;2024-01-15T21:23:38;96564.50;;;-2.48;100.00
23616;BME280;11985;49.404;7.734;2024-01-15T21:28:40;96559.88;;;-2.45;100.00
23616;BME280;11985;49.404;7.734;2024-01-15T21:33:43;96553.81;;;-2.53;100.00
23616;BME280;11985;49.404;7.734;2024-01-15T21:38:47;96565.09;;;-2.64;100.00
23616;BME280;11985;49.404;7.734;2024-01-15T21:43:51;96565.66;;;-2.70;100.00
23616;BME280;11985;49.404;7.734;2024-01-15T21:48:55;96572.88;;;-2.74;100.00
23616;BME280;11985;49.404;7.734;2024-01-15T21:53:57;96571.81;;;-2.81;100.00
23616;BME280;11985;49.404;7.734;2024-01-15T21:58:58;96580.75;;;-2.85;100.00
23616;BME280;11985;49.404;7.734;2024-01-15T22:04:01;96580.66;;;-2.93;100.00
23616;BME280;11985;49.404;7.734;2024-01-15T22:09:03;96577.28;;;-3.03;100.00
23616;BME280;11985;49.404;7.734;2024-01-15T22:14:04;96597.06;;;-3.13;100.00
23616;BME280;11985;49.404;7.734;2024-01-15T22:19:07;96596.66;;;-3.19;100.00
23616;BME280;11985;49.404;7.734;2024-01-15T22:24:09;96607.25;;;-3.22;100.00
23616;BME280;11985;49.404;7.734;2024-01-15T22:29:11;96617.41;;;-3.20;100.00
23616;BME280;11985;49.404;7.734;2024-01-15T22:34:13;96622.00;;;-3.24;100.00
23616;BME280;11985;49.404;7.734;2024-01-15T22:39:17;96633.66;;;-3.29;100.00
23616;BME280;11985;49.404;7.734;2024-01-15T22:44:19;96639.22;;;-3.34;100.00
23616;BME280;11985;49.404;7.734;2024-01-15T22:49:21;96633.13;;;-3.42;100.00
23616;BME280;11985;49.404;7.734;2024-01-15T22:54:23;96644.91;;;-3.40;100.00
23616;BME280;11985;49.404;7.734;2024-01-15T22:59:25;96648.56;;;-3.42;100.00
23616;BME280;11985;49.404;7.734;2024-01-15T23:04:28;96652.63;;;-3.40;100.00
23616;BME280;11985;49.404;7.734;2024-01-15T23:09:29;96656.16;;;-3.41;100.00
23616;BME280;11985;49.404;7.734;2024-01-15T23:14:31;96662.13;;;-3.40;100.00
23616;BME280;11985;49.404;7.734;2024-01-15T23:19:34;96652.09;;;-3.34;100.00
23616;BME280;11985;49.404;7.734;2024-01-15T23:24:35;96662.56;;;-3.26;100.00
23616;BME280;11985;49.404;7.734;2024-01-15T23:29:37;96659.97;;;-3.26;100.00
23616;BME280;11985;49.404;7.734;2024-01-15T23:34:40;96666.09;;;-3.27;100.00
23616;BME280;11985;49.404;7.734;2024-01-15T23:39:41;96667.97;;;-3.29;100.00
23616;BME280;11985;49.404;7.734;2024-01-15T23:44:43;96673.81;;;-3.27;100.00
23616;BME280;11985;49.404;7.734;2024-01-15T23:49:46;96684.53;;;-3.22;100.00
23616;BME280;11985;49.404;7.734;2024-01-15T23:54:47;96672.31;;;-3.20;100.00
23616;BME280;11985;49.404;7.734;2024-01-15T23:59:54;96673.38;;;-3.22;100.00
